sensor_id;sensor_type;location;lat;lon;timestamp;pressure;altitude;pressure_sealevel;temperature;humidity
63399;BME280;49533;-34.520;150.798;2023-05-18T00:02:03;101093.09;;;16.24;51.51
63399;BME280;49533;-34.520;150.798;2023-05-18T00:04:32;101070.34;;;16.23;51.60
63399;BME280;49533;-34.520;150.798;2023-05-18T00:07:01;101082.13;;;16.24;51.61
63399;BME280;49533;-34.520;150.798;2023-05-18T00:09:29;101074.38;;;16.26;51.80
63399;BME280;49533;-34.520;150.798;2023-05-18T00:11:57;101063.53;;;16.29;51.68
63399;BME280;49533;-34.520;150.798;2023-05-18T00:14:25;101020.69;;;15.95;51.61
63399;BME280;49533;-34.520;150.798;2023-05-18T00:16:52;101066.59;;;16.28;51.62
63399;BME280;49533;-34.520;150.798;2023-05-18T00:19:21;101080.25;;;16.37;51.55
63399;BME280;49533;-34.520;150.798;2023-05-18T00:21:50;101067.03;;;16.39;51.61
63399;BME280;49533;-34.520;150.798;2023-05-18T00:24:18;101077.66;;;16.40;51.66
63399;BME280;49533;-34.520;150.798;2023-05-18T00:26:46;101074.22;;;16.43;51.88
63399;BME280;49533;-34.520;150.798;2023-05-18T00:29:14;101070.50;;;16.48;51.76
63399;BME280;49533;-34.520;150.798;2023-05-18T00:31:42;101032.56;;;16.29;51.39
63399;BME280;49533;-34.520;150.798;2023-05-18T00:34:12;101042.88;;;16.32;51.69
63399;BME280;49533;-34.520;150.798;2023-05-18T00:36:40;101049.22;;;16.45;51.67
63399;BME280;49533;-34.520;150.798;2023-05-18T00:39:08;101024.47;;;16.33;51.75
63399;BME280;49533;-34.520;150.798;2023-05-18T00:41:35;101069.56;;;16.65;51.41
63399;BME280;49533;-34.520;150.798;2023-05-18T00:44:03;101021.06;;;16.36;51.58
63399;BME280;49533;-34.520;150.798;2023-05-18T00:46:30;101037.59;;;16.48;51.76
63399;BME280;49533;-34.520;150.798;2023-05-18T00:48:57;100996.13;;;16.28;51.74
63399;BME280;49533;-34.520;150.798;2023-05-18T00:51:27;101021.13;;;16.48;51.45
63399;BME280;49533;-34.520;150.798;2023-05-18T00:53:55;101016.84;;;16.38;51.53
63399;BME280;49533;-34.520;150.798;2023-05-18T00:56:23;101029.31;;;16.57;51.64
63399;BME280;49533;-34.520;150.798;2023-05-18T00:58:54;101056.56;;;16.74;51.41
63399;BME280;49533;-34.520;150.798;2023-05-18T01:01:26;101040.53;;;16.64;51.35
63399;BME280;49533;-34.520;150.798;2023-05-18T01:03:56;101037.53;;;16.57;51.62
63399;BME280;49533;-34.520;150.798;2023-05-18T01:06:23;101041.59;;;16.71;51.82
63399;BME280;49533;-34.520;150.798;2023-05-18T01:08:52;101028.06;;;16.66;51.48
63399;BME280;49533;-34.520;150.798;2023-05-18T01:11:31;100953.72;;;16.26;51.66
63399;BME280;49533;-34.520;150.798;2023-05-18T01:17:10;100964.53;;;16.43;51.72
63399;BME280;49533;-34.520;150.798;2023-05-18T01:19:59;101013.16;;;16.76;51.52
63399;BME280;49533;-34.520;150.798;2023-05-18T01:23:11;101006.00;;;16.84;51.57
63399;BME280;49533;-34.520;150.798;2023-05-18T01:25:49;100977.91;;;16.66;51.71
63399;BME280;49533;-34.520;150.798;2023-05-18T01:28:24;100980.31;;;16.67;51.80
63399;BME280;49533;-34.520;150.798;2023-05-18T01:30:55;100932.09;;;16.45;51.32
63399;BME280;49533;-34.520;150.798;2023-05-18T01:33:23;100937.16;;;16.56;51.45
63399;BME280;49533;-34.520;150.798;2023-05-18T01:35:51;100977.75;;;16.83;51.52
63399;BME280;49533;-34.520;150.798;2023-05-18T01:38:21;100978.28;;;16.98;51.39
63399;BME280;49533;-34.520;150.798;2023-05-18T01:41:11;100976.91;;;17.04;51.67
63399;BME280;49533;-34.520;150.798;2023-05-18T01:43:59;100978.63;;;17.08;51.71
63399;BME280;49533;-34.520;150.798;2023-05-18T01:46:35;100967.75;;;17.12;51.66
63399;BME280;49533;-34.520;150.798;2023-05-18T01:49:19;100964.34;;;17.15;51.35
63399;BME280;49533;-34.520;150.798;2023-05-18T01:51:49;100955.66;;;17.13;51.22
63399;BME280;49533;-34.520;150.798;2023-05-18T01:54:19;100936.19;;;17.06;51.47
63399;BME280;49533;-34.520;150.798;2023-05-18T01:56:48;100914.22;;;16.93;50.98
63399;BME280;49533;-34.520;150.798;2023-05-18T01:59:17;100918.09;;;17.05;51.21
63399;BME280;49533;-34.520;150.798;2023-05-18T02:01:44;100883.09;;;16.89;51.00
63399;BME280;49533;-34.520;150.798;2023-05-18T02:04:11;100888.94;;;17.00;51.04
63399;BME280;49533;-34.520;150.798;2023-05-18T02:06:38;100907.59;;;17.19;50.97
63399;BME280;49533;-34.520;150.798;2023-05-18T02:09:05;100926.94;;;17.35;51.14
63399;BME280;49533;-34.520;150.798;2023-05-18T02:11:33;100853.25;;;16.88;50.86
63399;BME280;49533;-34.520;150.798;2023-05-18T02:14:00;100889.88;;;17.16;50.67
63399;BME280;49533;-34.520;150.798;2023-05-18T02:16:27;100903.16;;;17.27;50.46
63399;BME280;49533;-34.520;150.798;2023-05-18T02:18:54;100870.88;;;17.11;50.49
63399;BME280;49533;-34.520;150.798;2023-05-18T02:21:22;100903.94;;;17.39;50.61
63399;BME280;49533;-34.520;150.798;2023-05-18T02:23:49;100905.09;;;17.38;50.31
63399;BME280;49533;-34.520;150.798;2023-05-18T02:26:16;100876.94;;;17.29;50.59
63399;BME280;49533;-34.520;150.798;2023-05-18T02:28:43;100891.13;;;17.44;50.44
63399;BME280;49533;-34.520;150.798;2023-05-18T02:31:11;100845.59;;;17.18;50.46
63399;BME280;49533;-34.520;150.798;2023-05-18T02:33:39;100819.19;;;17.01;50.23
63399;BME280;49533;-34.520;150.798;2023-05-18T02:36:09;100861.94;;;17.39;50.37
63399;BME280;49533;-34.520;150.798;2023-05-18T02:38:40;100866.19;;;17.36;50.45
63399;BME280;49533;-34.520;150.798;2023-05-18T02:41:10;100813.22;;;17.11;50.34
63399;BME280;49533;-34.520;150.798;2023-05-18T02:43:37;100802.56;;;17.10;50.09
63399;BME280;49533;-34.520;150.798;2023-05-18T02:46:05;100861.56;;;17.53;50.30
63399;BME280;49533;-34.520;150.798;2023-05-18T02:48:32;100842.13;;;17.46;50.20
63399;BME280;49533;-34.520;150.798;2023-05-18T02:50:59;100818.34;;;17.25;50.03
63399;BME280;49533;-34.520;150.798;2023-05-18T02:53:26;100839.50;;;17.49;50.13
63399;BME280;49533;-34.520;150.798;2023-05-18T02:55:54;100831.84;;;17.43;50.03
63399;BME280;49533;-34.520;150.798;2023-05-18T02:58:22;100841.06;;;17.63;50.01
63399;BME280;49533;-34.520;150.798;2023-05-18T03:00:51;100845.41;;;17.64;50.01
63399;BME280;49533;-34.520;150.798;2023-05-18T03:03:20;100842.31;;;17.65;50.33
63399;BME280;49533;-34.520;150.798;2023-05-18T03:05:49;100817.28;;;17.54;49.92
63399;BME280;49533;-34.520;150.798;2023-05-18T03:08:20;100799.34;;;17.45;49.82
63399;BME280;49533;-34.520;150.798;2023-05-18T03:10:48;100832.13;;;17.66;49.93
63399;BME280;49533;-34.520;150.798;2023-05-18T03:13:15;100756.25;;;17.21;49.94
63399;BME280;49533;-34.520;150.798;2023-05-18T03:15:42;100792.25;;;17.44;49.64
63399;BME280;49533;-34.520;150.798;2023-05-18T03:18:12;100788.34;;;17.45;49.54
63399;BME280;49533;-34.520;150.798;2023-05-18T03:20:39;100761.94;;;17.28;49.33
63399;BME280;49533;-34.520;150.798;2023-05-18T03:23:06;100817.34;;;17.70;49.41
63399;BME280;49533;-34.520;150.798;2023-05-18T03:25:33;100798.94;;;17.58;49.69
63399;BME280;49533;-34.520;150.798;2023-05-18T03:28:03;100772.00;;;17.36;49.80
63399;BME280;49533;-34.520;150.798;2023-05-18T03:30:31;100765.34;;;17.37;49.68
63399;BME280;49533;-34.520;150.798;2023-05-18T03:33:00;100791.31;;;17.52;49.56
63399;BME280;49533;-34.520;150.798;2023-05-18T03:35:28;100813.69;;;17.66;49.54
63399;BME280;49533;-34.520;150.798;2023-05-18T03:37:55;100815.31;;;17.67;49.32
63399;BME280;49533;-34.520;150.798;2023-05-18T03:40:23;100800.09;;;17.57;49.38
63399;BME280;49533;-34.520;150.798;2023-05-18T03:42:50;100805.44;;;17.66;49.16
63399;BME280;49533;-34.520;150.798;2023-05-18T03:45:17;100808.56;;;17.65;49.25
63399;BME280;49533;-34.520;150.798;2023-05-18T03:47:44;100805.03;;;17.64;49.30
63399;BME280;49533;-34.520;150.798;2023-05-18T03:50:13;100779.31;;;17.44;49.05
63399;BME280;49533;-34.520;150.798;2023-05-18T03:52:42;100786.28;;;17.54;49.38
63399;BME280;49533;-34.520;150.798;2023-05-18T03:55:10;100743.41;;;17.25;48.90
63399;BME280;49533;-34.520;150.798;2023-05-18T03:57:38;100771.88;;;17.45;48.78
63399;BME280;49533;-34.520;150.798;2023-05-18T04:00:06;100788.41;;;17.60;49.10
63399;BME280;49533;-34.520;150.798;2023-05-18T04:02:38;100779.53;;;17.51;48.65
63399;BME280;49533;-34.520;150.798;2023-05-18T04:05:05;100776.66;;;17.48;48.63
63399;BME280;49533;-34.520;150.798;2023-05-18T04:07:33;100784.88;;;17.60;48.52
63399;BME280;49533;-34.520;150.798;2023-05-18T04:10:10;100735.72;;;17.30;48.46
63399;BME280;49533;-34.520;150.798;2023-05-18T04:12:38;100787.94;;;17.58;48.67
63399;BME280;49533;-34.520;150.798;2023-05-18T04:15:06;100764.63;;;17.52;48.16
63399;BME280;49533;-34.520;150.798;2023-05-18T04:17:33;100773.53;;;17.62;48.44
63399;BME280;49533;-34.520;150.798;2023-05-18T04:20:00;100771.22;;;17.64;48.51
63399;BME280;49533;-34.520;150.798;2023-05-18T04:22:39;100762.19;;;17.63;48.40
63399;BME280;49533;-34.520;150.798;2023-05-18T04:25:09;100741.31;;;17.46;48.54
63399;BME280;49533;-34.520;150.798;2023-05-18T04:27:37;100764.47;;;17.61;48.43
63399;BME280;49533;-34.520;150.798;2023-05-18T04:30:05;100650.41;;;16.83;48.62
63399;BME280;49533;-34.520;150.798;2023-05-18T04:32:33;100705.13;;;17.16;48.59
63399;BME280;49533;-34.520;150.798;2023-05-18T04:35:06;100763.69;;;17.60;48.66
63399;BME280;49533;-34.520;150.798;2023-05-18T04:37:33;100733.31;;;17.41;48.63
63399;BME280;49533;-34.520;150.798;2023-05-18T04:40:01;100716.63;;;17.34;48.83
63399;BME280;49533;-34.520;150.798;2023-05-18T04:42:35;100743.81;;;17.51;48.39
63399;BME280;49533;-34.520;150.798;2023-05-18T04:45:03;100752.59;;;17.57;48.61
63399;BME280;49533;-34.520;150.798;2023-05-18T04:47:31;100712.38;;;17.36;48.84
63399;BME280;49533;-34.520;150.798;2023-05-18T04:49:58;100735.69;;;17.43;48.57
63399;BME280;49533;-34.520;150.798;2023-05-18T04:52:25;100762.19;;;17.63;48.77
63399;BME280;49533;-34.520;150.798;2023-05-18T04:54:56;100758.31;;;17.64;48.82
63399;BME280;49533;-34.520;150.798;2023-05-18T04:57:23;100760.22;;;17.64;48.63
63399;BME280;49533;-34.520;150.798;2023-05-18T04:59:50;100755.56;;;17.64;48.75
63399;BME280;49533;-34.520;150.798;2023-05-18T05:02:18;100712.38;;;17.36;48.12
63399;BME280;49533;-34.520;150.798;2023-05-18T05:04:45;100744.25;;;17.53;48.48
63399;BME280;49533;-34.520;150.798;2023-05-18T05:07:12;100675.41;;;17.06;48.14
63399;BME280;49533;-34.520;150.798;2023-05-18T05:09:40;100715.38;;;17.31;48.45
63399;BME280;49533;-34.520;150.798;2023-05-18T05:12:07;100741.88;;;17.52;48.38
63399;BME280;49533;-34.520;150.798;2023-05-18T05:14:34;100749.16;;;17.60;48.32
63399;BME280;49533;-34.520;150.798;2023-05-18T05:17:02;100759.44;;;17.63;48.57
63399;BME280;49533;-34.520;150.798;2023-05-18T05:19:29;100772.72;;;17.61;48.46
63399;BME280;49533;-34.520;150.798;2023-05-18T05:21:56;100747.22;;;17.48;48.57
63399;BME280;49533;-34.520;150.798;2023-05-18T05:24:23;100764.47;;;17.61;48.51
63399;BME280;49533;-34.520;150.798;2023-05-18T05:26:51;100748.16;;;17.52;48.37
63399;BME280;49533;-34.520;150.798;2023-05-18T05:29:18;100772.47;;;17.66;48.12
63399;BME280;49533;-34.520;150.798;2023-05-18T05:31:45;100726.44;;;17.35;48.07
63399;BME280;49533;-34.520;150.798;2023-05-18T05:34:12;100780.72;;;17.66;48.13
63399;BME280;49533;-34.520;150.798;2023-05-18T05:36:39;100774.78;;;17.64;48.12
63399;BME280;49533;-34.520;150.798;2023-05-18T05:39:07;100778.66;;;17.63;48.26
63399;BME280;49533;-34.520;150.798;2023-05-18T05:41:34;100729.09;;;17.31;48.05
63399;BME280;49533;-34.520;150.798;2023-05-18T05:44:01;100767.38;;;17.52;48.23
63399;BME280;49533;-34.520;150.798;2023-05-18T05:46:29;100790.47;;;17.64;48.22
63399;BME280;49533;-34.520;150.798;2023-05-18T05:48:56;100736.19;;;17.32;48.27
63399;BME280;49533;-34.520;150.798;2023-05-18T05:51:23;100724.78;;;17.18;48.22
63399;BME280;49533;-34.520;150.798;2023-05-18T05:53:50;100788.88;;;17.63;48.69
63399;BME280;49533;-34.520;150.798;2023-05-18T05:56:17;100783.38;;;17.63;48.15
63399;BME280;49533;-34.520;150.798;2023-05-18T05:58:44;100786.47;;;17.61;48.13
63399;BME280;49533;-34.520;150.798;2023-05-18T06:01:11;100787.16;;;17.58;48.21
63399;BME280;49533;-34.520;150.798;2023-05-18T06:03:38;100720.13;;;17.06;48.42
63399;BME280;49533;-34.520;150.798;2023-05-18T06:06:06;100794.28;;;17.59;48.60
63399;BME280;49533;-34.520;150.798;2023-05-18T06:08:33;100742.03;;;17.31;47.73
63399;BME280;49533;-34.520;150.798;2023-05-18T06:11:00;100647.09;;;16.65;48.43
63399;BME280;49533;-34.520;150.798;2023-05-18T06:13:27;100733.47;;;17.20;48.79
63399;BME280;49533;-34.520;150.798;2023-05-18T06:15:54;100735.09;;;17.21;48.80
63399;BME280;49533;-34.520;150.798;2023-05-18T06:18:21;100798.28;;;17.62;48.75
63399;BME280;49533;-34.520;150.798;2023-05-18T06:20:48;100733.22;;;17.25;48.99
63399;BME280;49533;-34.520;150.798;2023-05-18T06:23:15;100717.13;;;17.11;48.97
63399;BME280;49533;-34.520;150.798;2023-05-18T06:25:48;100758.84;;;17.42;49.00
63399;BME280;49533;-34.520;150.798;2023-05-18T06:28:16;100789.88;;;17.70;48.95
63399;BME280;49533;-34.520;150.798;2023-05-18T06:30:43;100781.66;;;17.58;49.17
63399;BME280;49533;-34.520;150.798;2023-05-18T06:33:10;100748.53;;;17.38;49.04
63399;BME280;49533;-34.520;150.798;2023-05-18T06:35:38;100701.81;;;17.10;48.94
63399;BME280;49533;-34.520;150.798;2023-05-18T06:38:06;100745.34;;;17.36;49.13
63399;BME280;49533;-34.520;150.798;2023-05-18T06:40:33;100800.16;;;17.73;48.89
63399;BME280;49533;-34.520;150.798;2023-05-18T06:43:01;100802.22;;;17.76;48.91
63399;BME280;49533;-34.520;150.798;2023-05-18T06:45:28;100767.03;;;17.54;48.97
63399;BME280;49533;-34.520;150.798;2023-05-18T06:47:56;100616.25;;;16.56;49.06
63399;BME280;49533;-34.520;150.798;2023-05-18T06:50:23;100801.06;;;17.77;48.58
63399;BME280;49533;-34.520;150.798;2023-05-18T06:52:50;100785.78;;;17.64;48.74
63399;BME280;49533;-34.520;150.798;2023-05-18T06:55:17;100806.22;;;17.79;48.82
63399;BME280;49533;-34.520;150.798;2023-05-18T06:57:45;100734.22;;;17.33;48.61
63399;BME280;49533;-34.520;150.798;2023-05-18T07:00:12;100806.22;;;17.79;48.68
63399;BME280;49533;-34.520;150.798;2023-05-18T07:02:39;100805.91;;;17.80;48.57
63399;BME280;49533;-34.520;150.798;2023-05-18T07:05:08;100805.19;;;17.84;48.39
63399;BME280;49533;-34.520;150.798;2023-05-18T07:07:35;100812.66;;;17.83;48.50
63399;BME280;49533;-34.520;150.798;2023-05-18T07:10:03;100672.69;;;16.93;48.27
63399;BME280;49533;-34.520;150.798;2023-05-18T07:12:30;100804.75;;;17.81;48.21
63399;BME280;49533;-34.520;150.798;2023-05-18T07:14:57;100794.31;;;17.75;48.26
63399;BME280;49533;-34.520;150.798;2023-05-18T07:17:24;100783.03;;;17.64;48.11
63399;BME280;49533;-34.520;150.798;2023-05-18T07:19:51;100784.97;;;17.64;48.46
63399;BME280;49533;-34.520;150.798;2023-05-18T07:22:19;100819.66;;;17.80;48.04
63399;BME280;49533;-34.520;150.798;2023-05-18T07:24:46;100820.09;;;17.83;48.17
63399;BME280;49533;-34.520;150.798;2023-05-18T07:27:13;100748.34;;;17.31;48.01
63399;BME280;49533;-34.520;150.798;2023-05-18T07:29:41;100771.97;;;17.48;47.88
63399;BME280;49533;-34.520;150.798;2023-05-18T07:32:08;100828.34;;;17.83;47.92
63399;BME280;49533;-34.520;150.798;2023-05-18T07:34:35;100642.50;;;16.69;47.85
63399;BME280;49533;-34.520;150.798;2023-05-18T07:37:02;100794.69;;;17.61;47.90
63399;BME280;49533;-34.520;150.798;2023-05-18T07:39:30;100832.69;;;17.84;47.81
63399;BME280;49533;-34.520;150.798;2023-05-18T07:41:58;100828.34;;;17.83;47.83
63399;BME280;49533;-34.520;150.798;2023-05-18T07:44:26;100799.16;;;17.66;47.57
63399;BME280;49533;-34.520;150.798;2023-05-18T07:46:53;100815.06;;;17.72;47.91
63399;BME280;49533;-34.520;150.798;2023-05-18T07:49:21;100797.91;;;17.63;47.65
63399;BME280;49533;-34.520;150.798;2023-05-18T07:51:49;100822.69;;;17.79;47.69
63399;BME280;49533;-34.520;150.798;2023-05-18T07:54:17;100832.81;;;17.87;47.13
63399;BME280;49533;-34.520;150.798;2023-05-18T07:56:44;100779.66;;;17.43;47.26
63399;BME280;49533;-34.520;150.798;2023-05-18T07:59:12;100745.81;;;17.26;47.48
63399;BME280;49533;-34.520;150.798;2023-05-18T08:01:39;100787.41;;;17.53;47.37
63399;BME280;49533;-34.520;150.798;2023-05-18T08:04:06;100838.19;;;17.84;47.47
63399;BME280;49533;-34.520;150.798;2023-05-18T08:06:33;100819.75;;;17.72;47.57
63399;BME280;49533;-34.520;150.798;2023-05-18T08:09:01;100830.75;;;17.72;47.54
63399;BME280;49533;-34.520;150.798;2023-05-18T08:11:28;100817.25;;;17.67;47.42
63399;BME280;49533;-34.520;150.798;2023-05-18T08:13:55;100821.94;;;17.66;47.43
63399;BME280;49533;-34.520;150.798;2023-05-18T08:16:22;100825.38;;;17.63;47.30
63399;BME280;49533;-34.520;150.798;2023-05-18T08:18:49;100814.63;;;17.58;47.39
63399;BME280;49533;-34.520;150.798;2023-05-18T08:21:17;100845.84;;;17.78;47.18
63399;BME280;49533;-34.520;150.798;2023-05-18T08:23:45;100852.13;;;17.78;47.20
63399;BME280;49533;-34.520;150.798;2023-05-18T08:26:12;100820.72;;;17.51;47.37
63399;BME280;49533;-34.520;150.798;2023-05-18T08:28:40;100785.16;;;17.30;47.20
63399;BME280;49533;-34.520;150.798;2023-05-18T08:31:07;100868.16;;;17.76;47.28
63399;BME280;49533;-34.520;150.798;2023-05-18T08:33:34;100783.47;;;17.13;47.38
63399;BME280;49533;-34.520;150.798;2023-05-18T08:36:01;100856.97;;;17.69;47.10
63399;BME280;49533;-34.520;150.798;2023-05-18T08:38:29;100818.69;;;17.36;47.40
63399;BME280;49533;-34.520;150.798;2023-05-18T08:41:11;100812.38;;;17.35;47.43
63399;BME280;49533;-34.520;150.798;2023-05-18T08:43:44;100867.97;;;17.69;47.12
63399;BME280;49533;-34.520;150.798;2023-05-18T08:46:19;100822.56;;;17.35;47.40
63399;BME280;49533;-34.520;150.798;2023-05-18T08:48:46;100833.53;;;17.47;47.20
63399;BME280;49533;-34.520;150.798;2023-05-18T08:51:20;100864.78;;;17.67;47.43
63399;BME280;49533;-34.520;150.798;2023-05-18T08:53:51;100858.81;;;17.65;47.34
63399;BME280;49533;-34.520;150.798;2023-05-18T08:56:22;100863.84;;;17.63;47.37
63399;BME280;49533;-34.520;150.798;2023-05-18T08:58:53;100882.28;;;17.63;47.43
63399;BME280;49533;-34.520;150.798;2023-05-18T09:01:21;100833.00;;;17.42;47.27
63399;BME280;49533;-34.520;150.798;2023-05-18T09:03:55;100859.06;;;17.60;47.53
63399;BME280;49533;-34.520;150.798;2023-05-18T09:06:23;100852.75;;;17.59;47.32
63399;BME280;49533;-34.520;150.798;2023-05-18T09:08:54;100848.88;;;17.48;47.33
63399;BME280;49533;-34.520;150.798;2023-05-18T09:11:25;100840.31;;;17.37;47.24
63399;BME280;49533;-34.520;150.798;2023-05-18T09:13:54;100867.88;;;17.53;47.07
63399;BME280;49533;-34.520;150.798;2023-05-18T09:16:21;100814.59;;;17.17;47.23
63399;BME280;49533;-34.520;150.798;2023-05-18T09:18:48;100794.34;;;17.10;47.35
63399;BME280;49533;-34.520;150.798;2023-05-18T09:21:15;100812.88;;;17.13;47.39
63399;BME280;49533;-34.520;150.798;2023-05-18T09:23:43;100872.56;;;17.53;46.84
63399;BME280;49533;-34.520;150.798;2023-05-18T09:26:10;100836.44;;;17.26;47.38
63399;BME280;49533;-34.520;150.798;2023-05-18T09:28:40;100866.66;;;17.38;47.17
63399;BME280;49533;-34.520;150.798;2023-05-18T09:31:16;100846.63;;;17.26;47.05
63399;BME280;49533;-34.520;150.798;2023-05-18T09:33:45;100877.03;;;17.45;47.34
63399;BME280;49533;-34.520;150.798;2023-05-18T09:36:13;100887.56;;;17.43;47.55
63399;BME280;49533;-34.520;150.798;2023-05-18T09:38:42;100879.69;;;17.42;47.43
63399;BME280;49533;-34.520;150.798;2023-05-18T09:41:13;100882.44;;;17.42;47.51
63399;BME280;49533;-34.520;150.798;2023-05-18T09:43:43;100885.50;;;17.40;47.14
63399;BME280;49533;-34.520;150.798;2023-05-18T09:46:12;100734.84;;;16.40;47.25
63399;BME280;49533;-34.520;150.798;2023-05-18T09:48:45;100852.22;;;17.17;47.26
63399;BME280;49533;-34.520;150.798;2023-05-18T09:51:13;100823.41;;;16.99;47.23
63399;BME280;49533;-34.520;150.798;2023-05-18T09:53:53;100888.50;;;17.35;47.48
63399;BME280;49533;-34.520;150.798;2023-05-18T09:56:22;100854.72;;;17.10;47.29
63399;BME280;49533;-34.520;150.798;2023-05-18T09:58:50;100883.34;;;17.33;47.24
63399;BME280;49533;-34.520;150.798;2023-05-18T10:01:17;100885.66;;;17.31;46.82
63399;BME280;49533;-34.520;150.798;2023-05-18T10:03:45;100884.50;;;17.32;46.89
63399;BME280;49533;-34.520;150.798;2023-05-18T10:06:13;100886.78;;;17.30;46.78
63399;BME280;49533;-34.520;150.798;2023-05-18T10:08:45;100844.44;;;17.07;47.07
63399;BME280;49533;-34.520;150.798;2023-05-18T10:11:14;100841.13;;;17.01;47.04
63399;BME280;49533;-34.520;150.798;2023-05-18T10:13:44;100884.25;;;17.25;47.01
63399;BME280;49533;-34.520;150.798;2023-05-18T10:16:12;100826.72;;;16.92;47.09
63399;BME280;49533;-34.520;150.798;2023-05-18T10:18:39;100879.13;;;17.24;47.28
63399;BME280;49533;-34.520;150.798;2023-05-18T10:21:07;100883.34;;;17.21;47.18
63399;BME280;49533;-34.520;150.798;2023-05-18T10:23:35;100865.84;;;17.13;47.48
63399;BME280;49533;-34.520;150.798;2023-05-18T10:26:04;100872.38;;;17.21;47.11
63399;BME280;49533;-34.520;150.798;2023-05-18T10:28:37;100847.78;;;17.00;47.20
63399;BME280;49533;-34.520;150.798;2023-05-18T10:31:05;100876.59;;;17.19;46.98
63399;BME280;49533;-34.520;150.798;2023-05-18T10:33:36;100845.69;;;16.97;46.90
63399;BME280;49533;-34.520;150.798;2023-05-18T10:36:04;100747.28;;;16.25;46.77
63399;BME280;49533;-34.520;150.798;2023-05-18T10:38:32;100888.59;;;17.14;47.27
63399;BME280;49533;-34.520;150.798;2023-05-18T10:41:00;100802.91;;;16.59;47.29
63399;BME280;49533;-34.520;150.798;2023-05-18T10:43:27;100883.00;;;17.10;47.13
63399;BME280;49533;-34.520;150.798;2023-05-18T10:45:58;100876.69;;;17.10;47.23
63399;BME280;49533;-34.520;150.798;2023-05-18T10:48:27;100881.75;;;17.08;47.24
63399;BME280;49533;-34.520;150.798;2023-05-18T10:50:56;100876.59;;;17.06;47.21
63399;BME280;49533;-34.520;150.798;2023-05-18T10:53:24;100870.31;;;17.06;47.21
63399;BME280;49533;-34.520;150.798;2023-05-18T10:55:53;100866.78;;;17.05;47.02
63399;BME280;49533;-34.520;150.798;2023-05-18T10:58:24;100872.59;;;17.04;47.26
63399;BME280;49533;-34.520;150.798;2023-05-18T11:00:55;100871.00;;;17.03;47.23
63399;BME280;49533;-34.520;150.798;2023-05-18T11:03:24;100815.56;;;16.64;46.95
63399;BME280;49533;-34.520;150.798;2023-05-18T11:06:07;100826.78;;;16.71;47.32
63399;BME280;49533;-34.520;150.798;2023-05-18T11:08:44;100809.97;;;16.60;47.11
63399;BME280;49533;-34.520;150.798;2023-05-18T11:11:12;100849.09;;;16.82;47.55
63399;BME280;49533;-34.520;150.798;2023-05-18T11:13:44;100789.69;;;16.40;47.38
63399;BME280;49533;-34.520;150.798;2023-05-18T11:16:15;100839.59;;;16.67;47.36
63399;BME280;49533;-34.520;150.798;2023-05-18T11:18:49;100828.16;;;16.65;47.51
63399;BME280;49533;-34.520;150.798;2023-05-18T11:21:21;100870.63;;;16.92;47.40
63399;BME280;49533;-34.520;150.798;2023-05-18T11:24:16;100879.06;;;16.87;47.31
63399;BME280;49533;-34.520;150.798;2023-05-18T11:26:53;100878.97;;;16.83;47.76
63399;BME280;49533;-34.520;150.798;2023-05-18T11:29:32;100826.41;;;16.48;47.65
63399;BME280;49533;-34.520;150.798;2023-05-18T11:32:00;100861.19;;;16.68;47.79
63399;BME280;49533;-34.520;150.798;2023-05-18T11:34:40;100882.72;;;16.79;47.62
63399;BME280;49533;-34.520;150.798;2023-05-18T11:37:11;100874.00;;;16.77;47.75
63399;BME280;49533;-34.520;150.798;2023-05-18T11:39:39;100817.00;;;16.37;47.79
63399;BME280;49533;-34.520;150.798;2023-05-18T11:42:08;100882.59;;;16.75;47.71
63399;BME280;49533;-34.520;150.798;2023-05-18T11:44:36;100879.38;;;16.73;47.96
63399;BME280;49533;-34.520;150.798;2023-05-18T11:47:08;100852.72;;;16.61;47.82
63399;BME280;49533;-34.520;150.798;2023-05-18T11:49:45;100852.38;;;16.63;47.88
63399;BME280;49533;-34.520;150.798;2023-05-18T11:52:24;100830.03;;;16.40;48.07
63399;BME280;49533;-34.520;150.798;2023-05-18T11:54:55;100823.66;;;16.48;47.77
63399;BME280;49533;-34.520;150.798;2023-05-18T11:57:25;100865.88;;;16.68;47.96
63399;BME280;49533;-34.520;150.798;2023-05-18T11:59:57;100870.91;;;16.66;47.86
63399;BME280;49533;-34.520;150.798;2023-05-18T12:02:29;100856.34;;;16.53;47.93
63399;BME280;49533;-34.520;150.798;2023-05-18T12:04:57;100858.28;;;16.52;47.84
63399;BME280;49533;-34.520;150.798;2023-05-18T12:07:27;100870.78;;;16.62;47.94
63399;BME280;49533;-34.520;150.798;2023-05-18T12:10:00;100832.28;;;16.25;47.93
63399;BME280;49533;-34.520;150.798;2023-05-18T12:12:28;100879.34;;;16.61;47.92
63399;BME280;49533;-34.520;150.798;2023-05-18T12:14:57;100844.75;;;16.35;47.97
63399;BME280;49533;-34.520;150.798;2023-05-18T12:17:41;100830.22;;;16.22;47.98
63399;BME280;49533;-34.520;150.798;2023-05-18T12:20:11;100850.03;;;16.40;47.78
63399;BME280;49533;-34.520;150.798;2023-05-18T12:22:39;100818.53;;;16.13;48.20
63399;BME280;49533;-34.520;150.798;2023-05-18T12:25:07;100882.88;;;16.49;48.06
63399;BME280;49533;-34.520;150.798;2023-05-18T12:27:40;100874.63;;;16.49;48.01
63399;BME280;49533;-34.520;150.798;2023-05-18T12:30:11;100847.19;;;16.37;48.25
63399;BME280;49533;-34.520;150.798;2023-05-18T12:32:46;100861.94;;;16.44;48.25
63399;BME280;49533;-34.520;150.798;2023-05-18T12:35:13;100837.22;;;16.32;48.25